Time;durP1;ratioP1;P1;durP2;ratioP2;P2;SDS_P1;SDS_P2;PMS_P1;PMS_P2;Temp;Humidity;BMP_temperature;BMP_pressure;BME280_temperature;BME280_humidity;BME280_pressure;Samples;Min_cycle;Max_cycle;Signal;HPM_P1;HPM_P2
2024/03/11 00:00:19;;;;;;;1.35;0.30;;;;;;;4.90;76.50;91236.31;2071676;69;20144;-74
2024/03/11 00:06:35;;;;;;;0.90;0.30;;;;;;;4.87;75.58;91236.84;2071807;69;20253;-76
2024/03/11 00:09:15;;;;;;;0.28;0.28;;;;;;;4.79;75.94;91237.09;2071712;69;20153;-74
2024/03/11 00:12:03;;;;;;;0.30;0.25;;;;;;;4.78;75.66;91236.38;2071903;69;20159;-74
2024/03/11 00:14:33;;;;;;;0.32;0.20;;;;;;;4.63;76.78;91250.81;2071532;69;20610;-75
2024/03/11 00:17:02;;;;;;;0.88;0.50;;;;;;;4.55;76.42;91242.69;2068415;69;20644;-75
2024/03/11 00:19:28;;;;;;;1.45;0.80;;;;;;;4.49;76.28;91255.53;2071588;69;20264;-77
2024/03/11 00:21:58;;;;;;;1.42;0.60;;;;;;;4.50;77.15;91263.31;2068260;69;20143;-71
2024/03/11 00:24:24;;;;;;;0.77;0.65;;;;;;;4.57;75.77;91250.44;2071644;69;20163;-75
2024/03/11 00:26:51;;;;;;;0.63;0.63;;;;;;;4.55;75.91;91262.22;2071576;69;20599;-74
2024/03/11 00:29:17;;;;;;;0.77;0.70;;;;;;;4.14;77.42;91263.91;2068246;69;20160;-74
2024/03/11 00:31:43;;;;;;;0.65;0.65;;;;;;;4.39;76.79;91269.59;2071685;69;20210;-74
2024/03/11 00:34:10;;;;;;;0.73;0.60;;;;;;;4.45;76.38;91267.19;2071732;69;20167;-75
2024/03/11 00:36:37;;;;;;;0.95;0.63;;;;;;;4.40;76.67;91271.06;2067620;69;20160;-76
2024/03/11 00:39:03;;;;;;;2.70;0.70;;;;;;;4.36;76.12;91273.59;2068133;69;20673;-74
2024/03/11 00:41:32;;;;;;;2.47;0.60;;;;;;;4.34;75.95;91271.41;2067721;69;20168;-76
2024/03/11 00:43:58;;;;;;;0.60;0.52;;;;;;;4.28;76.59;91267.53;2068542;69;20624;-75
2024/03/11 00:46:24;;;;;;;0.50;0.50;;;;;;;4.09;76.13;91260.13;2068391;69;20157;-74
2024/03/11 00:48:49;;;;;;;2.50;0.50;;;;;;;4.20;76.37;91264.97;2068217;69;20140;-74
2024/03/11 00:51:16;;;;;;;2.92;0.98;;;;;;;4.27;76.42;91272.38;2068320;69;20247;-75
2024/03/11 00:53:42;;;;;;;1.88;0.60;;;;;;;4.33;75.82;91274.81;2068292;69;20157;-74
2024/03/11 00:56:08;;;;;;;0.63;0.63;;;;;;;4.29;76.37;91282.91;2068186;69;20153;-75
2024/03/11 00:58:35;;;;;;;0.98;0.68;;;;;;;4.25;75.66;91285.44;2068156;69;20205;-75
2024/03/11 01:01:07;;;;;;;0.50;0.40;;;;;;;4.25;76.09;91279.88;2064589;69;20175;-75
2024/03/11 01:03:33;;;;;;;1.05;0.77;;;;;;;3.82;76.62;91280.06;2068124;69;20152;-76
2024/03/11 01:05:59;;;;;;;0.70;0.60;;;;;;;4.06;76.16;91283.63;2068324;69;20242;-76
2024/03/11 01:08:26;;;;;;;0.75;0.60;;;;;;;4.10;76.40;91292.22;2068300;69;20551;-76
2024/03/11 01:10:52;;;;;;;1.38;0.73;;;;;;;4.11;76.09;91293.69;2068266;69;20620;-76
2024/03/11 01:13:18;;;;;;;1.20;0.70;;;;;;;3.97;75.84;91299.09;2068419;69;20195;-76
2024/03/11 01:15:46;;;;;;;0.43;0.40;;;;;;;4.02;75.33;91303.59;2067650;69;20140;-75
2024/03/11 01:18:12;;;;;;;0.50;0.50;;;;;;;3.96;76.10;91292.09;2068037;69;20141;-74
2024/03/11 01:20:38;;;;;;;0.50;0.50;;;;;;;4.00;75.92;91306.25;2068238;69;20144;-76
2024/03/11 01:23:05;;;;;;;1.08;0.60;;;;;;;3.93;76.12;91304.41;2068210;69;20595;-75
2024/03/11 01:25:32;;;;;;;0.70;0.50;;;;;;;3.85;76.38;91305.97;2068231;69;20140;-75
2024/03/11 01:27:57;;;;;;;0.70;0.47;;;;;;;3.89;76.06;91303.44;2068092;69;20171;-77
2024/03/11 01:30:24;;;;;;;0.88;0.50;;;;;;;3.45;76.99;91310.44;2068150;69;20600;-74
2024/03/11 01:32:51;;;;;;;0.88;0.75;;;;;;;3.66;77.38;91312.44;2067514;69;20497;-76
2024/03/11 01:39:12;;;;;;;0.50;0.50;;;;;;;3.73;76.15;91306.66;2070035;69;20315;-74
2024/03/11 01:41:38;;;;;;;1.83;0.60;;;;;;;3.64;77.12;91299.13;2072629;69;20211;-74
2024/03/11 01:44:07;;;;;;;0.75;0.65;;;;;;;3.59;76.66;91297.44;2069192;69;20144;-74
2024/03/11 01:46:34;;;;;;;0.73;0.50;;;;;;;3.60;77.16;91300.94;2071400;69;20615;-75
2024/03/11 01:49:06;;;;;;;0.80;0.60;;;;;;;3.60;76.89;91298.16;2072395;69;20636;-77
2024/03/11 01:51:39;;;;;;;0.73;0.60;;;;;;;3.61;76.55;91305.16;2072698;69;20175;-75
2024/03/11 01:57:54;;;;;;;0.77;0.57;;;;;;;3.44;76.35;91309.00;2072353;69;20165;-74
2024/03/11 02:00:24;;;;;;;0.60;0.50;;;;;;;3.53;76.62;91314.47;2069304;69;20608;-74
2024/03/11 02:02:54;;;;;;;1.40;0.80;;;;;;;3.53;76.89;91316.53;2069122;69;20160;-76
2024/03/11 02:05:27;;;;;;;0.52;0.50;;;;;;;3.54;76.41;91313.13;2072581;69;20172;-75
2024/03/11 02:08:03;;;;;;;0.40;0.40;;;;;;;3.44;76.94;91320.13;2072369;69;20681;-76
2024/03/11 02:10:29;;;;;;;2.38;0.90;;;;;;;2.94;78.69;91324.56;2072547;69;20208;-75
2024/03/11 02:12:58;;;;;;;0.88;0.60;;;;;;;3.12;79.18;91319.47;2072497;69;20141;-76
2024/03/11 02:15:25;;;;;;;0.60;0.52;;;;;;;3.34;77.20;91325.00;2069160;69;20135;-73
2024/03/11 02:17:51;;;;;;;0.77;0.77;;;;;;;3.37;76.97;91307.13;2072472;69;20148;-76
2024/03/11 02:20:17;;;;;;;1.30;0.77;;;;;;;3.41;76.91;91324.09;2072542;69;20147;-76
2024/03/11 02:22:50;;;;;;;3.88;0.80;;;;;;;3.36;76.44;91316.81;2072371;69;20140;-75
2024/03/11 02:25:18;;;;;;;1.05;0.85;;;;;;;3.11;77.15;91317.28;2072574;69;20267;-75
2024/03/11 02:27:46;;;;;;;3.90;0.90;;;;;;;3.24;76.59;91316.75;2072535;69;20206;-75
2024/03/11 02:30:12;;;;;;;1.23;0.80;;;;;;;3.22;76.95;91313.84;2072475;69;20140;-73
2024/03/11 02:32:39;;;;;;;0.60;0.60;;;;;;;3.22;76.78;91317.34;2072498;69;20217;-74
2024/03/11 02:35:05;;;;;;;0.88;0.40;;;;;;;3.22;76.41;91311.78;2069009;69;20171;-74
2024/03/11 02:37:33;;;;;;;1.48;0.60;;;;;;;3.21;76.64;91310.34;2072164;69;20604;-73
2024/03/11 02:40:00;;;;;;;1.48;0.50;;;;;;;2.96;76.97;91313.56;2069009;69;20178;-74
2024/03/11 02:42:25;;;;;;;0.50;0.50;;;;;;;3.09;77.95;91317.88;2069011;69;20156;-74
2024/03/11 02:44:54;;;;;;;1.58;0.63;;;;;;;2.90;78.19;91304.84;2068851;69;20152;-74
2024/03/11 02:47:20;;;;;;;1.48;0.60;;;;;;;3.07;77.73;91320.53;2072333;69;20174;-75
2024/03/11 02:49:50;;;;;;;0.70;0.70;;;;;;;3.04;77.04;91316.91;2069136;69;20155;-74
2024/03/11 02:52:17;;;;;;;0.65;0.50;;;;;;;3.09;75.76;91309.53;2071911;69;20532;-75
2024/03/11 02:54:43;;;;;;;2.65;1.80;;;;;;;2.56;79.98;91311.59;2068514;69;20151;-76
2024/03/11 02:57:09;;;;;;;2.10;1.20;;;;;;;2.79;79.17;91305.50;2071462;69;20257;-75
2024/03/11 02:59:35;;;;;;;1.73;1.10;;;;;;;2.93;78.42;91314.78;2071708;69;20596;-73
2024/03/11 03:02:00;;;;;;;1.58;1.10;;;;;;;2.89;78.01;91325.63;2071604;69;20169;-75
2024/03/11 03:04:26;;;;;;;2.08;1.20;;;;;;;2.97;77.18;91317.81;2071691;69;20148;-74
2024/03/11 03:06:54;;;;;;;1.45;0.90;;;;;;;2.59;77.64;91298.59;2071804;69;20152;-76
2024/03/11 03:09:21;;;;;;;1.08;0.98;;;;;;;2.80;78.95;91304.91;2071829;69;20168;-73
2024/03/11 03:11:47;;;;;;;1.38;0.80;;;;;;;2.85;78.35;91317.03;2062922;69;20147;-74
2024/03/11 03:14:12;;;;;;;1.73;0.93;;;;;;;2.89;77.45;91320.06;2071766;69;20227;-74
2024/03/11 03:16:38;;;;;;;0.70;0.57;;;;;;;2.91;77.62;91314.63;2071707;69;20156;-74
2024/03/11 03:19:04;;;;;;;0.75;0.55;;;;;;;2.83;77.28;91316.16;2071739;69;20148;-75
2024/03/11 03:21:30;;;;;;;1.40;0.75;;;;;;;2.71;77.90;91319.59;2071551;69;20176;-75
2024/03/11 03:23:56;;;;;;;0.70;0.70;;;;;;;2.80;77.65;91315.31;2071633;69;20596;-74
2024/03/11 03:26:23;;;;;;;3.17;1.10;;;;;;;2.78;77.34;91320.72;2071646;69;20155;-75
2024/03/11 03:28:52;;;;;;;1.30;0.85;;;;;;;2.75;77.28;91327.47;2071721;69;20176;-74
2024/03/11 03:31:18;;;;;;;2.45;0.70;;;;;;;2.58;77.46;91305.47;2071632;69;20584;-75
2024/03/11 03:33:44;;;;;;;2.83;1.80;;;;;;;2.42;77.72;91296.78;2071601;69;20140;-75
2024/03/11 03:36:09;;;;;;;4.72;1.50;;;;;;;2.70;77.29;91322.94;2071818;69;20172;-75
2024/03/11 03:38:37;;;;;;;1.95;1.20;;;;;;;2.70;77.46;91334.06;2071883;69;20179;-76
2024/03/11 03:41:06;;;;;;;2.88;1.17;;;;;;;2.76;76.88;91334.47;2071299;69;20221;-74
2024/03/11 03:47:19;;;;;;;3.03;1.90;;;;;;;2.69;76.90;91336.13;2071670;69;20150;-77
2024/03/11 03:49:45;;;;;;;2.92;1.80;;;;;;;2.57;77.77;91340.13;2071741;69;20132;-75
2024/03/11 03:52:11;;;;;;;3.67;1.75;;;;;;;2.21;80.42;91342.63;2071676;69;20143;-74
2024/03/11 03:54:37;;;;;;;3.00;1.90;;;;;;;2.49;78.27;91335.50;2071570;69;20140;-76
2024/03/11 03:57:03;;;;;;;3.58;1.88;;;;;;;2.52;77.15;91330.78;2071728;69;20175;-76
2024/03/11 03:59:29;;;;;;;2.42;1.60;;;;;;;2.53;77.20;91332.25;2071713;69;20281;-74
2024/03/11 04:01:55;;;;;;;3.15;1.70;;;;;;;2.46;77.27;91339.44;2071598;69;20155;-75
2024/03/11 04:04:21;;;;;;;1.90;1.40;;;;;;;2.51;77.27;91341.16;2071540;69;20156;-75
2024/03/11 04:06:48;;;;;;;1.95;1.17;;;;;;;2.50;76.94;91345.28;2068221;69;20144;-74
2024/03/11 04:09:14;;;;;;;2.53;1.30;;;;;;;2.54;77.54;91347.59;2071545;69;20222;-75
2024/03/11 04:11:41;;;;;;;3.33;2.28;;;;;;;2.17;77.73;91366.59;2071465;69;20190;-76
2024/03/11 04:14:07;;;;;;;4.32;3.30;;;;;;;2.14;78.60;91340.00;2071725;69;20148;-74
2024/03/11 04:16:35;;;;;;;3.90;2.35;;;;;;;2.31;78.33;91359.25;2071386;69;20197;-73
2024/03/11 04:19:02;;;;;;;4.30;1.98;;;;;;;2.42;77.71;91358.59;2071526;69;20221;-75
2024/03/11 04:21:28;;;;;;;3.28;2.00;;;;;;;2.50;77.54;91370.28;2068454;69;20163;-74
2024/03/11 04:23:56;;;;;;;3.38;1.80;;;;;;;2.41;77.14;91364.75;2068197;69;20176;-77
2024/03/11 04:26:26;;;;;;;3.03;1.55;;;;;;;2.43;76.90;91368.41;2068382;69;20611;-75
2024/03/11 04:28:54;;;;;;;2.15;1.40;;;;;;;2.37;76.76;91370.03;2065346;69;20182;-75
2024/03/11 04:31:20;;;;;;;3.22;1.60;;;;;;;2.36;77.46;91369.31;2071812;69;20174;-74
2024/03/11 04:33:46;;;;;;;2.05;1.40;;;;;;;2.07;78.08;91371.44;2068290;69;20190;-75
2024/03/11 04:36:13;;;;;;;3.90;2.78;;;;;;;2.24;77.58;91376.78;2068192;69;20240;-75
2024/03/11 04:38:38;;;;;;;14.48;8.15;;;;;;;2.20;77.71;91387.59;2071572;69;20168;-76
2024/03/11 04:41:04;;;;;;;28.17;14.23;;;;;;;2.29;77.63;91376.50;2071490;69;20509;-75
2024/03/11 04:43:30;;;;;;;38.47;19.73;;;;;;;1.64;78.39;91382.31;2068099;69;20136;-78
2024/03/11 04:45:55;;;;;;;13.88;7.72;;;;;;;1.67;81.34;91370.78;2071497;69;20228;-74
2024/03/11 04:48:21;;;;;;;26.63;15.98;;;;;;;2.10;79.51;91378.59;2071305;69;20224;-75
2024/03/11 04:50:48;;;;;;;36.58;21.98;;;;;;;2.11;78.66;91378.00;2071468;69;20148;-79
2024/03/11 04:53:16;;;;;;;24.80;15.25;;;;;;;2.01;78.30;91388.38;2071936;69;20223;-77
2024/03/11 04:55:42;;;;;;;9.07;5.20;;;;;;;2.13;78.96;91386.47;2071400;69;20140;-75
2024/03/11 04:58:09;;;;;;;8.02;4.40;;;;;;;2.10;79.57;91370.25;2068087;69;20152;-78
2024/03/11 05:00:36;;;;;;;9.35;5.90;;;;;;;2.23;78.15;91380.88;2071464;69;20231;-74
2024/03/11 05:03:03;;;;;;;9.00;5.43;;;;;;;2.22;77.68;91382.94;2071327;69;20223;-76
2024/03/11 05:05:35;;;;;;;7.20;4.03;;;;;;;2.16;77.62;91385.31;2071106;69;20156;-76
2024/03/11 05:08:04;;;;;;;3.92;2.53;;;;;;;2.17;77.23;91391.59;2071559;69;20276;-75
2024/03/11 05:10:31;;;;;;;3.45;2.08;;;;;;;2.05;78.58;91397.00;2068235;69;20191;-75
2024/03/11 05:12:58;;;;;;;4.00;1.92;;;;;;;1.80;79.19;91407.72;2071625;69;20244;-76
2024/03/11 05:15:28;;;;;;;6.55;2.40;;;;;;;1.78;79.44;91411.06;2071457;69;20140;-78
2024/03/11 05:17:54;;;;;;;9.35;2.60;;;;;;;1.80;79.53;91418.81;2068248;69;20155;-76
2024/03/11 05:20:19;;;;;;;2.78;1.80;;;;;;;1.87;78.77;91407.53;2068366;69;20612;-77
2024/03/11 05:22:47;;;;;;;3.83;2.22;;;;;;;1.97;78.00;91421.41;2068459;69;20243;-78
2024/03/11 05:25:17;;;;;;;2.85;2.15;;;;;;;2.01;77.64;91432.78;2071710;69;20156;-78
2024/03/11 05:27:46;;;;;;;2.20;2.00;;;;;;;1.91;78.42;91432.09;2071397;69;20232;-77
2024/03/11 05:30:13;;;;;;;3.40;1.80;;;;;;;2.03;78.13;91436.47;2071661;69;20172;-76
2024/03/11 05:32:39;;;;;;;4.97;1.80;;;;;;;2.09;77.30;91427.09;2071634;69;20163;-78
2024/03/11 05:35:07;;;;;;;2.15;1.55;;;;;;;2.14;77.37;91449.00;2071691;69;20152;-78
2024/03/11 05:37:33;;;;;;;3.00;1.60;;;;;;;1.96;77.98;91458.81;2071510;69;20146;-78
2024/03/11 05:39:59;;;;;;;4.80;1.50;;;;;;;2.07;77.56;91466.56;2071719;69;20140;-78
2024/03/11 05:42:25;;;;;;;1.98;1.10;;;;;;;2.07;76.76;91460.28;2071479;69;20170;-79
2024/03/11 05:44:50;;;;;;;1.67;0.82;;;;;;;2.01;76.92;91452.97;2071589;69;20148;-76
2024/03/11 05:47:16;;;;;;;10.80;5.65;;;;;;;2.01;77.29;91466.84;2068132;69;20152;-76
2024/03/11 05:49:42;;;;;;;4.72;3.40;;;;;;;2.14;77.48;91468.44;2071528;69;20222;-77
2024/03/11 05:52:12;;;;;;;5.35;2.83;;;;;;;1.95;77.93;91463.63;2071618;69;20160;-75
2024/03/11 05:54:38;;;;;;;7.20;3.50;;;;;;;2.02;77.81;91468.31;2071511;69;20224;-77
2024/03/11 05:57:08;;;;;;;8.02;3.75;;;;;;;2.13;77.22;91463.47;2071234;69;20224;-76
2024/03/11 05:59:35;;;;;;;5.53;2.85;;;;;;;2.03;77.01;91455.16;2071609;69;20149;-77
2024/03/11 06:02:01;;;;;;;4.57;2.80;;;;;;;2.07;77.13;91471.38;2071455;69;20148;-78
2024/03/11 06:04:27;;;;;;;5.80;3.13;;;;;;;2.04;77.45;91487.88;2071588;69;20159;-76
2024/03/11 06:06:53;;;;;;;4.38;2.60;;;;;;;2.04;78.06;91493.44;2071550;69;20231;-78
2024/03/11 06:09:23;;;;;;;1.65;0.80;;;;;;;2.24;76.71;91488.59;2071606;69;20243;-78
2024/03/11 06:11:49;;;;;;;10.20;3.00;;;;;;;2.03;77.23;91500.31;2071460;69;20241;-76
2024/03/11 06:14:17;;;;;;;8.85;2.55;;;;;;;2.11;78.04;91502.19;2068242;69;20144;-76
2024/03/11 06:16:44;;;;;;;5.32;2.70;;;;;;;2.21;77.84;91505.72;2071700;69;20151;-74
2024/03/11 06:19:14;;;;;;;10.02;3.88;;;;;;;2.27;77.31;91506.88;2071451;69;20674;-77
2024/03/11 06:21:42;;;;;;;6.05;2.83;;;;;;;2.35;76.73;91511.53;2068359;69;20199;-75
2024/03/11 06:24:10;;;;;;;5.43;2.70;;;;;;;2.42;76.04;91516.19;2071640;69;20160;-77
2024/03/11 06:26:37;;;;;;;11.32;4.90;;;;;;;2.37;76.53;91501.28;2071307;69;20144;-80
2024/03/11 06:29:06;;;;;;;8.25;3.90;;;;;;;2.52;75.73;91526.00;2072102;69;20211;-76
2024/03/11 06:31:36;;;;;;;14.10;5.97;;;;;;;2.40;77.17;91521.63;2072173;69;20656;-76
2024/03/11 06:34:06;;;;;;;5.80;3.08;;;;;;;1.94;78.31;91528.06;2072185;69;20148;-76
2024/03/11 06:36:32;;;;;;;7.65;3.03;;;;;;;2.18;77.86;91537.41;2065982;69;20136;-78
2024/03/11 06:38:58;;;;;;;5.68;3.13;;;;;;;2.30;77.41;91532.75;2072144;69;20168;-76
2024/03/11 06:41:27;;;;;;;9.18;3.22;;;;;;;2.28;77.29;91538.13;2072043;69;20155;-77
2024/03/11 06:43:53;;;;;;;8.27;4.20;;;;;;;2.02;78.86;91540.50;2068921;69;20625;-77
2024/03/11 06:46:22;;;;;;;6.80;3.40;;;;;;;2.28;77.64;91546.47;2071789;69;20148;-76
2024/03/11 06:48:47;;;;;;;8.85;4.63;;;;;;;2.44;77.06;91544.13;2071599;69;20133;-77
2024/03/11 06:51:13;;;;;;;8.35;4.63;;;;;;;2.15;78.55;91550.41;2071986;69;20526;-74
2024/03/11 06:53:39;;;;;;;10.50;5.50;;;;;;;2.34;77.90;91544.16;2071988;69;20132;-76
2024/03/11 06:56:11;;;;;;;9.15;4.72;;;;;;;2.44;77.88;91552.47;2071967;69;20205;-76
2024/03/11 06:58:41;;;;;;;9.38;4.40;;;;;;;2.56;77.45;91556.09;2068682;69;20224;-75
2024/03/11 07:01:10;;;;;;;8.13;4.60;;;;;;;2.60;76.84;91561.22;2068725;69;20227;-76
2024/03/11 07:03:37;;;;;;;7.30;4.22;;;;;;;2.59;77.14;91556.97;2071859;69;20194;-76
2024/03/11 07:06:03;;;;;;;7.03;4.00;;;;;;;2.51;77.60;91562.69;2071934;69;20223;-79
2024/03/11 07:08:30;;;;;;;6.80;4.18;;;;;;;2.71;76.74;91561.34;2068585;69;20239;-76
2024/03/11 07:10:56;;;;;;;6.28;3.28;;;;;;;2.76;76.82;91563.09;2068599;69;20210;-77
2024/03/11 07:13:21;;;;;;;7.30;2.97;;;;;;;2.87;75.64;91561.75;2065716;69;20176;-75
2024/03/11 07:15:50;;;;;;;7.85;3.70;;;;;;;2.69;76.77;91561.19;2071728;69;20140;-77
2024/03/11 07:18:19;;;;;;;6.53;4.00;;;;;;;2.65;77.34;91566.47;2071524;69;20159;-75
2024/03/11 07:20:46;;;;;;;8.68;4.80;;;;;;;2.83;76.58;91560.72;2068487;69;20137;-76
2024/03/11 07:23:12;;;;;;;8.15;4.80;;;;;;;2.86;76.53;91565.13;2071998;69;20151;-75
2024/03/11 07:29:31;;;;;;;2.10;1.70;;;;;;;3.12;74.47;91575.31;2071873;69;20622;-79
2024/03/11 07:31:56;;;;;;;3.72;1.83;;;;;;;3.09;73.83;91559.06;2071806;69;20136;-79
2024/03/11 07:34:23;;;;;;;5.13;2.80;;;;;;;3.12;74.59;91569.75;2065789;69;20143;-77
2024/03/11 07:36:49;;;;;;;3.65;2.40;;;;;;;3.24;73.85;91572.63;2065546;69;20652;-76
2024/03/11 07:39:15;;;;;;;2.75;1.90;;;;;;;3.06;73.53;91547.06;2068020;69;20164;-77
2024/03/11 07:41:40;;;;;;;7.53;4.43;;;;;;;2.98;75.19;91586.16;2071844;69;20183;-75
2024/03/11 07:44:08;;;;;;;10.60;4.13;;;;;;;2.94;75.77;91588.66;2071876;69;20148;-75
2024/03/11 07:46:35;;;;;;;6.20;3.50;;;;;;;2.91;74.95;91592.59;2071726;69;20155;-75
2024/03/11 07:49:00;;;;;;;5.25;3.13;;;;;;;3.08;73.81;91596.53;2072016;69;20187;-75
2024/03/11 07:51:26;;;;;;;3.42;2.38;;;;;;;2.89;73.88;91591.75;2068447;69;20608;-75
2024/03/11 07:53:52;;;;;;;2.35;1.25;;;;;;;2.82;72.67;91587.06;2071605;69;20139;-75
2024/03/11 07:56:17;;;;;;;2.58;1.20;;;;;;;2.99;71.93;91592.47;2071922;69;20213;-75
2024/03/11 07:58:46;;;;;;;4.97;1.40;;;;;;;3.26;71.03;91592.25;2071752;69;20235;-75
2024/03/11 08:01:11;;;;;;;2.53;1.23;;;;;;;3.52;70.78;91587.72;2071833;69;20156;-76
2024/03/11 08:03:37;;;;;;;1.92;1.30;;;;;;;3.85;69.28;91590.69;2071625;69;20150;-75
2024/03/11 08:06:04;;;;;;;2.22;1.50;;;;;;;4.40;69.64;91587.97;2068414;69;20132;-77
2024/03/11 08:08:29;;;;;;;1.65;1.27;;;;;;;4.90;70.02;91584.16;2071713;69;20596;-77
2024/03/11 08:10:55;;;;;;;2.28;1.10;;;;;;;5.29;68.46;91590.09;2071656;69;20152;-76
2024/03/11 08:13:21;;;;;;;2.33;1.55;;;;;;;5.60;68.03;91589.91;2071618;69;20167;-78
2024/03/11 08:15:46;;;;;;;2.47;1.92;;;;;;;6.02;68.41;91591.03;2071642;69;20156;-76
2024/03/11 08:18:13;;;;;;;5.53;3.00;;;;;;;6.30;65.59;91587.09;2071602;69;20484;-76
2024/03/11 08:20:38;;;;;;;4.50;2.83;;;;;;;6.43;66.32;91596.19;2071759;69;20140;-76
2024/03/11 08:23:04;;;;;;;7.18;4.05;;;;;;;6.85;65.82;91593.03;2071326;69;20147;-76
2024/03/11 08:25:31;;;;;;;4.68;2.92;;;;;;;6.86;65.04;91588.88;2071575;69;20623;-76
2024/03/11 08:27:58;;;;;;;3.20;1.85;;;;;;;7.27;65.01;91587.63;2068451;69;20664;-76
2024/03/11 08:30:28;;;;;;;2.38;1.20;;;;;;;7.55;59.99;91580.03;2071650;69;20615;-76
2024/03/11 08:32:56;;;;;;;5.90;2.60;;;;;;;7.99;61.72;91580.94;2071648;69;20147;-75
2024/03/11 08:35:23;;;;;;;1.67;1.30;;;;;;;8.03;54.91;91576.25;2068283;69;20588;-76
2024/03/11 08:37:49;;;;;;;9.32;5.40;;;;;;;8.23;58.12;91570.25;2071182;69;20132;-74
2024/03/11 08:40:16;;;;;;;8.38;3.20;;;;;;;8.48;59.73;91575.03;2071568;69;20140;-75
2024/03/11 08:42:44;;;;;;;6.47;2.75;;;;;;;8.65;59.28;91566.78;2071663;69;20156;-74
2024/03/11 08:45:18;;;;;;;3.42;2.30;;;;;;;8.39;57.20;91574.63;2071675;69;20214;-74
2024/03/11 08:47:48;;;;;;;3.05;2.00;;;;;;;8.63;57.67;91572.31;2071650;69;20593;-74
2024/03/11 08:50:17;;;;;;;5.10;1.98;;;;;;;9.29;56.37;91576.16;2071565;69;20141;-77
2024/03/11 08:52:45;;;;;;;5.55;2.40;;;;;;;9.85;57.39;91566.13;2071834;69;20584;-78
2024/03/11 08:55:13;;;;;;;5.95;3.20;;;;;;;10.22;55.64;91567.75;2071760;69;20238;-76
2024/03/11 08:57:40;;;;;;;5.20;2.75;;;;;;;10.29;55.87;91568.75;2071723;69;20151;-79
2024/03/11 09:00:10;;;;;;;4.57;2.13;;;;;;;10.35;55.82;91554.94;2071915;69;20204;-75
2024/03/11 09:02:36;;;;;;;3.28;1.88;;;;;;;10.69;54.08;91561.31;2071559;69;20667;-77
2024/03/11 09:05:03;;;;;;;6.03;1.77;;;;;;;11.47;54.25;91553.19;2071698;69;20171;-77
2024/03/11 09:07:30;;;;;;;2.47;1.50;;;;;;;11.15;52.65;91565.31;2071675;69;20144;-76
2024/03/11 09:09:57;;;;;;;2.60;0.98;;;;;;;12.04;50.37;91563.81;2071667;69;20143;-76
2024/03/11 09:12:23;;;;;;;3.35;1.17;;;;;;;12.45;50.44;91558.25;2068444;69;20152;-77
2024/03/11 09:14:49;;;;;;;2.35;1.15;;;;;;;12.89;50.22;91554.84;2071667;69;20182;-75
2024/03/11 09:17:17;;;;;;;1.60;1.00;;;;;;;12.97;45.96;91561.50;2071428;69;20147;-77
2024/03/11 09:19:43;;;;;;;1.75;1.00;;;;;;;13.21;46.42;91558.75;2071515;69;20164;-75
2024/03/11 09:22:08;;;;;;;0.85;0.70;;;;;;;13.01;41.41;91552.41;2071562;69;20133;-76
2024/03/11 09:28:22;;;;;;;1.17;0.90;;;;;;;13.62;45.52;91548.75;2071580;69;20545;-74
2024/03/11 09:30:48;;;;;;;3.05;1.00;;;;;;;13.79;44.48;91540.75;2071873;69;20148;-75
2024/03/11 09:33:14;;;;;;;1.98;0.90;;;;;;;14.34;45.01;91534.63;2071590;69;20164;-75
2024/03/11 09:35:40;;;;;;;1.25;0.80;;;;;;;13.72;45.18;91543.41;2071628;69;20160;-75
2024/03/11 09:38:06;;;;;;;1.02;0.73;;;;;;;14.11;43.03;91541.75;2071471;69;20136;-75
2024/03/11 09:40:31;;;;;;;0.57;0.57;;;;;;;14.64;42.33;91539.69;2071688;69;20148;-74
2024/03/11 09:43:01;;;;;;;1.40;0.77;;;;;;;14.62;40.02;91534.00;2071632;69;20582;-78
2024/03/11 09:45:29;;;;;;;1.05;0.70;;;;;;;14.48;40.63;91529.38;2071608;69;20181;-75
2024/03/11 09:48:00;;;;;;;1.58;0.50;;;;;;;15.74;39.20;91529.03;2071516;69;20183;-76
2024/03/11 09:50:30;;;;;;;1.40;0.50;;;;;;;16.46;40.65;91524.91;2071578;69;20225;-76
2024/03/11 09:53:06;;;;;;;2.05;0.90;;;;;;;15.06;38.33;91525.94;2071609;69;20148;-75
2024/03/11 09:55:35;;;;;;;1.13;0.70;;;;;;;15.72;37.56;91528.28;2071603;69;20595;-75
2024/03/11 09:58:13;;;;;;;1.08;0.80;;;;;;;16.69;38.33;91529.63;2071623;69;20152;-78
2024/03/11 10:00:50;;;;;;;2.28;0.68;;;;;;;17.12;38.72;91530.44;2071591;69;20160;-78
2024/03/11 10:03:20;;;;;;;1.83;0.80;;;;;;;17.15;38.50;91526.25;2071695;69;20156;-77
2024/03/11 10:05:54;;;;;;;0.90;0.70;;;;;;;17.62;36.28;91534.84;2071998;69;20147;-77
2024/03/11 10:08:25;;;;;;;0.77;0.65;;;;;;;17.27;34.32;91532.16;2071961;69;20186;-73
2024/03/11 10:11:24;;;;;;;1.55;0.60;;;;;;;17.01;35.05;91528.84;2071981;69;20186;-74
2024/03/11 10:13:57;;;;;;;0.88;0.68;;;;;;;17.75;36.19;91536.50;2072221;69;20238;-76
2024/03/11 10:16:26;;;;;;;0.80;0.60;;;;;;;19.21;36.02;91532.03;2071949;69;20152;-74
2024/03/11 10:19:14;;;;;;;2.67;0.60;;;;;;;18.80;33.10;91510.91;2071752;69;20155;-74
2024/03/11 10:21:43;;;;;;;0.55;0.35;;;;;;;19.24;34.00;91524.19;2072068;69;20242;-75
2024/03/11 10:24:09;;;;;;;0.43;0.15;;;;;;;19.63;32.44;91533.16;2072011;69;20140;-76
2024/03/11 10:26:42;;;;;;;0.20;0.20;;;;;;;20.32;32.49;91533.66;2068644;69;20235;-77
2024/03/11 10:29:09;;;;;;;0.90;0.30;;;;;;;20.73;32.42;91533.91;2072079;69;20172;-74
2024/03/11 10:31:35;;;;;;;0.30;0.10;;;;;;;21.61;31.08;91543.50;2071982;69;20602;-75
2024/03/11 10:34:10;;;;;;;0.20;0.20;;;;;;;21.39;31.91;91534.88;2072120;69;20168;-75
2024/03/11 10:36:39;;;;;;;0.20;0.08;;;;;;;21.00;27.70;91531.88;2071981;69;20634;-75
2024/03/11 10:39:17;;;;;;;3.72;0.50;;;;;;;20.57;31.02;91528.81;2071724;69;20221;-75
2024/03/11 10:41:43;;;;;;;2.05;0.35;;;;;;;22.79;29.67;91539.88;2071883;69;20210;-75
2024/03/11 10:44:15;;;;;;;0.65;0.20;;;;;;;22.99;29.48;91539.84;2071902;69;20156;-76
2024/03/11 10:46:42;;;;;;;0.28;0.20;;;;;;;24.66;28.66;91534.47;2071646;69;20176;-75
2024/03/11 10:49:14;;;;;;;0.25;0.22;;;;;;;23.68;28.20;91535.22;2071820;69;20136;-75
2024/03/11 10:51:46;;;;;;;0.20;0.10;;;;;;;23.54;28.07;91536.69;2071825;69;20148;-74
2024/03/11 10:54:22;;;;;;;0.40;0.22;;;;;;;24.51;27.83;91537.47;2071727;69;20155;-75
2024/03/11 10:56:55;;;;;;;0.30;0.30;;;;;;;25.86;27.01;91530.16;2071983;69;20612;-75
2024/03/11 10:59:29;;;;;;;0.28;0.20;;;;;;;25.90;24.91;91543.78;2071919;69;20200;-76
2024/03/11 11:01:59;;;;;;;0.70;0.20;;;;;;;26.83;25.58;91541.56;2071832;69;20227;-75
2024/03/11 11:04:33;;;;;;;0.30;0.20;;;;;;;26.89;24.87;91535.69;2071759;69;20143;-75
2024/03/11 11:07:02;;;;;;;0.50;0.30;;;;;;;27.83;23.92;91540.34;2071866;69;20247;-76
2024/03/11 11:09:29;;;;;;;1.05;0.20;;;;;;;27.28;24.04;91534.97;2071694;69;20305;-76
2024/03/11 11:11:56;;;;;;;1.08;0.20;;;;;;;26.62;24.30;91541.25;2071500;69;20144;-77
2024/03/11 11:14:24;;;;;;;0.30;0.20;;;;;;;27.61;23.36;91538.63;2071817;69;20205;-78
2024/03/11 11:16:51;;;;;;;0.57;0.38;;;;;;;30.09;23.99;91533.75;2071690;69;20206;-78
2024/03/11 11:19:23;;;;;;;1.58;0.40;;;;;;;30.54;21.89;91522.97;2071732;69;20149;-77
2024/03/11 11:21:52;;;;;;;;;;;;;;;29.62;22.47;91517.78;2071971;69;20507;-77
2024/03/11 11:24:31;;;;;;;0.20;0.10;;;;;;;27.83;22.34;91528.78;2071856;69;20432;-77
2024/03/11 11:27:02;;;;;;;0.47;0.20;;;;;;;30.77;21.90;91529.47;2071826;69;20511;-76
2024/03/11 11:29:31;;;;;;;0.53;0.20;;;;;;;28.85;22.48;91523.44;2071790;69;20574;-78
2024/03/11 11:32:11;;;;;;;0.85;0.30;;;;;;;31.59;21.91;91530.28;2071738;69;20219;-77
2024/03/11 11:34:45;;;;;;;0.77;0.28;;;;;;;31.04;19.87;91523.50;2071807;69;20172;-75
2024/03/11 11:37:13;;;;;;;0.32;0.20;;;;;;;34.28;20.21;91520.72;2068348;69;20172;-75
2024/03/11 11:39:42;;;;;;;0.40;0.28;;;;;;;34.74;19.23;91526.56;2071744;69;20152;-77
2024/03/11 11:42:34;;;;;;;0.20;0.20;;;;;;;35.12;19.18;91523.97;2071598;69;20233;-79
2024/03/11 11:45:00;;;;;;;1.10;0.20;;;;;;;33.69;19.54;91514.66;2068431;69;20141;-77
2024/03/11 11:47:27;;;;;;;0.30;0.20;;;;;;;35.78;18.53;91521.34;2071835;69;20261;-76
2024/03/11 11:49:56;;;;;;;1.17;0.20;;;;;;;34.39;18.36;91521.66;2068491;69;20600;-76
2024/03/11 11:52:23;;;;;;;0.25;0.20;;;;;;;33.23;18.02;91521.72;2068590;69;20588;-76
2024/03/11 11:54:52;;;;;;;0.25;0.20;;;;;;;30.38;20.37;91503.91;2071559;69;20811;-75
2024/03/11 11:57:21;;;;;;;0.43;0.15;;;;;;;25.94;22.46;91495.44;2071581;69;20174;-78
2024/03/11 11:59:53;;;;;;;0.45;0.30;;;;;;;25.31;23.67;91502.78;2068453;69;20162;-75
2024/03/11 12:02:28;;;;;;;0.40;0.20;;;;;;;27.01;23.67;91505.88;2071699;69;20147;-78
2024/03/11 12:04:57;;;;;;;0.57;0.25;;;;;;;26.89;23.20;91494.56;2071837;69;20231;-75